createdAt,value
2022-10-13T00:00:35.359Z,328.08
2022-10-13T00:03:23.680Z,343.17
2022-10-13T00:06:12.031Z,340.17
2022-10-13T00:09:00.210Z,330.40
2022-10-13T00:11:49.439Z,341.50
2022-10-13T00:14:37.362Z,327.55
2022-10-13T00:17:25.270Z,314.05
2022-10-13T00:20:13.608Z,314.38
2022-10-13T00:23:01.529Z,312.08
2022-10-13T00:25:50.799Z,323.40
2022-10-13T00:28:40.839Z,323.90
2022-10-13T00:31:31.787Z,310.20
2022-10-13T00:34:19.695Z,319.60
2022-10-13T00:37:07.670Z,332.25
2022-10-13T00:39:55.569Z,317.90
2022-10-13T00:42:45.488Z,341.25
2022-10-13T00:45:34.963Z,321.73
2022-10-13T00:48:26.967Z,325.23
2022-10-13T00:51:18.972Z,342.98
2022-10-13T00:54:10.207Z,309.73
2022-10-13T00:56:58.684Z,314.95
2022-10-13T00:59:46.607Z,320.25
2022-10-13T01:02:38.149Z,341.02
2022-10-13T01:05:26.944Z,328.83
2022-10-13T01:08:17.318Z,317.67
2022-10-13T01:11:22.818Z,319.85
2022-10-13T01:14:19.185Z,330.23
2022-10-13T01:17:16.179Z,312.40
2022-10-13T01:20:33.474Z,306.33
2022-10-13T01:23:39.090Z,314.35
2022-10-13T01:26:56.154Z,334.65
2022-10-13T01:30:08.191Z,334.73
2022-10-13T01:33:14.872Z,325.00
2022-10-13T01:36:12.742Z,334.60
2022-10-13T01:39:06.753Z,328.13
2022-10-13T01:42:02.394Z,327.00
2022-10-13T01:44:54.012Z,324.77
2022-10-13T01:47:43.284Z,332.10
2022-10-13T01:50:33.593Z,332.33
2022-10-13T01:53:22.382Z,343.02
2022-10-13T01:56:14.623Z,328.02
2022-10-13T01:59:05.960Z,345.92
2022-10-13T02:02:04.382Z,348.70
2022-10-13T02:05:03.992Z,340.13
2022-10-13T02:07:57.159Z,322.70
2022-10-13T02:10:53.744Z,356.33
2022-10-13T02:13:47.888Z,346.23
2022-10-13T02:16:44.412Z,360.70
2022-10-13T02:19:35.458Z,342.33
2022-10-13T02:22:30.571Z,351.52
2022-10-13T02:25:20.297Z,341.02
2022-10-13T02:28:08.549Z,329.65
2022-10-13T02:31:03.279Z,317.60
2022-10-13T02:33:51.459Z,332.60
2022-10-13T02:36:41.638Z,317.58
2022-10-13T02:39:29.491Z,324.50
2022-10-13T02:42:17.654Z,342.90
2022-10-13T02:45:06.945Z,328.77
2022-10-13T02:47:55.118Z,335.13
2022-10-13T02:50:42.990Z,351.50
2022-10-13T02:53:32.360Z,337.27
2022-10-13T02:56:20.425Z,325.02
2022-10-13T02:59:08.450Z,336.05
2022-10-13T03:01:56.761Z,320.50
2022-10-13T03:04:45.088Z,320.55
2022-10-13T03:07:32.967Z,335.00
2022-10-13T03:10:22.473Z,338.58
2022-10-13T03:13:12.858Z,341.10
2022-10-13T03:16:00.792Z,333.17
2022-10-13T03:18:48.732Z,322.90
2022-10-13T03:21:37.866Z,325.83
2022-10-13T03:24:25.815Z,326.40
2022-10-13T03:27:15.767Z,337.77
2022-10-13T03:30:04.035Z,321.05
2022-10-13T03:32:54.146Z,318.00
2022-10-13T03:35:42.072Z,307.45
2022-10-13T03:38:30.620Z,317.13
2022-10-13T03:41:19.741Z,321.33
2022-10-13T03:44:13.237Z,301.23
2022-10-13T03:47:01.156Z,298.95
2022-10-13T03:49:49.080Z,336.45
2022-10-13T03:52:37.042Z,321.60
2022-10-13T03:55:24.924Z,325.10
2022-10-13T03:58:12.795Z,336.10
2022-10-13T04:01:06.291Z,330.85
2022-10-13T04:03:55.841Z,314.38
2022-10-13T04:06:43.767Z,325.25
2022-10-13T04:09:31.682Z,342.77
2022-10-13T04:12:21.029Z,307.10
2022-10-13T04:15:10.575Z,325.90
2022-10-13T04:17:59.849Z,320.17
2022-10-13T04:20:47.785Z,334.42
2022-10-13T04:23:35.732Z,323.13
2022-10-13T04:26:25.010Z,333.42
2022-10-13T04:29:13.225Z,327.30
2022-10-13T04:32:01.293Z,336.98
2022-10-13T04:34:50.627Z,320.52
2022-10-13T04:37:42.780Z,310.50
2022-10-13T04:40:32.878Z,313.63
2022-10-13T04:43:20.761Z,316.38
2022-10-13T04:46:11.468Z,316.52
2022-10-13T04:48:59.400Z,317.90
2022-10-13T04:51:54.476Z,311.38
2022-10-13T04:54:42.954Z,321.67
2022-10-13T04:57:30.821Z,322.33
2022-10-13T05:00:19.283Z,347.50
2022-10-13T05:03:07.766Z,348.70
2022-10-13T05:05:55.708Z,334.27
2022-10-13T05:08:45.070Z,329.05
2022-10-13T05:11:35.135Z,320.48
2022-10-13T05:14:23.363Z,318.63
2022-10-13T05:17:11.465Z,341.65
2022-10-13T05:19:59.317Z,344.10
2022-10-13T05:22:47.273Z,340.10
2022-10-13T05:25:37.599Z,336.08
2022-10-13T05:28:25.508Z,345.85
2022-10-13T05:31:15.554Z,359.95
2022-10-13T05:34:03.564Z,337.50
2022-10-13T05:36:51.472Z,337.38
2022-10-13T05:39:39.455Z,330.77
2022-10-13T05:42:30.346Z,326.05
2022-10-13T05:45:20.681Z,340.00
2022-10-13T05:48:08.754Z,321.60
2022-10-13T05:51:00.225Z,326.17
2022-10-13T05:53:55.369Z,309.92
2022-10-13T05:56:50.732Z,331.35
2022-10-13T05:59:44.446Z,334.77
2022-10-13T06:02:35.409Z,309.63
2022-10-13T06:05:05.719Z,327.10
2022-10-13T06:07:33.998Z,321.15
2022-10-13T06:10:02.254Z,320.92
2022-10-13T06:12:29.848Z,323.95
2022-10-13T06:14:58.776Z,349.52
2022-10-13T06:17:26.416Z,347.08
2022-10-13T06:19:54.033Z,349.23
2022-10-13T06:22:22.711Z,326.50
2022-10-13T06:24:50.743Z,346.88
2022-10-13T06:27:18.344Z,354.02
2022-10-13T06:29:47.889Z,346.15
2022-10-13T06:32:16.893Z,371.05
2022-10-13T06:34:44.483Z,345.92
2022-10-13T06:37:12.196Z,350.08
2022-10-13T06:39:39.829Z,345.73
2022-10-13T06:42:07.548Z,369.98
2022-10-13T06:44:38.863Z,357.48
2022-10-13T06:47:06.712Z,350.90
2022-10-13T06:49:35.791Z,353.83
2022-10-13T06:52:03.594Z,346.90
2022-10-13T06:54:31.393Z,363.10
2022-10-13T06:56:58.997Z,374.27
2022-10-13T06:59:27.655Z,363.13
2022-10-13T07:01:55.435Z,389.23
2022-10-13T07:04:25.835Z,388.23
2022-10-13T07:06:57.097Z,366.67
2022-10-13T07:09:24.703Z,352.20
2022-10-13T07:11:52.900Z,376.73
2022-10-13T07:14:20.499Z,373.88
2022-10-13T07:16:48.734Z,377.13
2022-10-13T07:19:16.386Z,382.23
2022-10-13T07:21:44.004Z,366.48
2022-10-13T07:24:13.133Z,377.02
2022-10-13T07:26:40.773Z,374.95
2022-10-13T07:29:09.286Z,385.58
2022-10-13T07:31:36.893Z,375.83
2022-10-13T07:34:05.579Z,386.40
2022-10-13T07:36:34.240Z,391.52
2022-10-13T07:39:03.079Z,384.27
2022-10-13T07:41:32.517Z,391.27
2022-10-13T07:44:00.231Z,371.95
2022-10-13T07:46:28.023Z,355.63
2022-10-13T07:48:56.474Z,343.55
2022-10-13T07:51:24.302Z,339.98
2022-10-13T07:53:52.266Z,366.20
2022-10-13T07:56:19.963Z,356.75
2022-10-13T07:58:48.937Z,346.90
2022-10-13T08:01:17.598Z,356.77
2022-10-13T08:03:49.928Z,362.65
2022-10-13T08:06:19.381Z,368.92
2022-10-13T08:08:47.839Z,373.27
2022-10-13T08:11:18.652Z,375.67
2022-10-13T08:13:52.290Z,377.63
2022-10-13T08:16:23.810Z,368.30
2022-10-13T08:18:51.649Z,387.48
2022-10-13T08:24:12.501Z,363.45
2022-10-13T08:26:41.037Z,394.58
2022-10-13T08:29:21.504Z,354.10
2022-10-13T08:34:23.197Z,380.70
2022-10-13T08:36:53.116Z,406.40
2022-10-13T08:39:22.876Z,423.75
2022-10-13T08:41:51.210Z,393.33
2022-10-13T08:47:25.372Z,413.88
2022-10-13T08:49:57.710Z,419.67
2022-10-13T08:52:30.317Z,426.52
2022-10-13T08:54:58.953Z,430.42
2022-10-13T08:57:27.407Z,454.27
2022-10-13T08:59:56.385Z,420.83
2022-10-13T09:02:27.087Z,413.58
2022-10-13T09:04:55.250Z,426.05
2022-10-13T09:07:27.510Z,403.50
2022-10-13T09:09:56.734Z,423.50
2022-10-13T09:12:26.153Z,427.23
2022-10-13T09:15:05.213Z,422.27
2022-10-13T09:17:34.468Z,425.08
2022-10-13T09:20:05.313Z,407.80
2022-10-13T09:22:35.470Z,415.27
2022-10-13T09:25:16.887Z,407.35
2022-10-13T09:27:47.656Z,421.25
2022-10-13T09:30:30.775Z,416.40
2022-10-13T09:33:22.304Z,397.95
2022-10-13T09:36:07.125Z,393.30
2022-10-13T09:38:35.929Z,369.42
2022-10-13T09:41:05.924Z,375.20
2022-10-13T09:43:35.516Z,368.58
2022-10-13T09:46:14.650Z,374.77
2022-10-13T09:48:45.915Z,365.42
2022-10-13T09:51:33.286Z,390.13
2022-10-13T09:54:07.173Z,381.38
2022-10-13T09:56:40.537Z,374.38
2022-10-13T09:59:31.014Z,374.17
2022-10-13T10:02:02.741Z,379.15
2022-10-13T10:04:36.630Z,374.95
2022-10-13T10:07:11.836Z,383.05
2022-10-13T10:09:42.599Z,377.05
2022-10-13T10:12:16.526Z,384.85
2022-10-13T10:14:44.111Z,394.48
2022-10-13T10:17:22.295Z,394.13
2022-10-13T10:20:03.636Z,377.42
2022-10-13T10:22:40.974Z,383.60
2022-10-13T10:25:23.255Z,369.15
2022-10-13T10:28:07.168Z,369.20
2022-10-13T10:30:39.193Z,358.10
2022-10-13T10:33:12.902Z,359.38
2022-10-13T10:35:49.677Z,378.95
2022-10-13T10:38:29.846Z,377.83
2022-10-13T10:41:05.809Z,366.27
2022-10-13T10:43:44.127Z,365.05
2022-10-13T10:46:18.035Z,358.02
2022-10-13T10:48:50.246Z,371.98
2022-10-13T10:51:19.563Z,377.65
2022-10-13T10:53:56.155Z,381.98
2022-10-13T10:56:48.505Z,372.17
2022-10-13T10:59:26.877Z,377.98
2022-10-13T11:02:05.535Z,393.42
2022-10-13T11:04:42.532Z,389.65
2022-10-13T11:07:35.153Z,393.63
2022-10-13T11:10:21.174Z,390.23
2022-10-13T11:13:18.109Z,394.98
2022-10-13T11:15:48.133Z,407.25
2022-10-13T11:18:53.528Z,430.00
2022-10-13T11:21:23.733Z,406.25
2022-10-13T11:23:52.037Z,406.27
2022-10-13T11:26:32.844Z,444.88
2022-10-13T11:29:01.215Z,436.02
2022-10-13T11:31:33.704Z,455.88
2022-10-13T11:34:04.796Z,415.30
2022-10-13T11:36:47.863Z,447.52
2022-10-13T11:40:01.904Z,462.30
2022-10-13T11:43:09.094Z,407.83
2022-10-13T11:45:58.384Z,422.92
2022-10-13T11:49:02.061Z,423.48
2022-10-13T11:51:50.616Z,400.45
2022-10-13T11:54:28.964Z,398.38
2022-10-13T11:56:58.797Z,410.48
2022-10-13T11:59:31.052Z,398.65
2022-10-13T12:02:06.893Z,418.80
2022-10-13T12:04:34.970Z,411.45
2022-10-13T12:07:07.291Z,419.73
2022-10-13T12:09:37.590Z,408.15
2022-10-13T12:12:13.610Z,430.98
2022-10-13T12:14:44.141Z,454.42
2022-10-13T12:17:24.423Z,462.83
2022-10-13T12:19:53.234Z,462.55
2022-10-13T12:22:23.694Z,481.60
2022-10-13T12:25:00.246Z,471.42
2022-10-13T12:27:32.408Z,480.38
2022-10-13T12:30:00.842Z,471.13
2022-10-13T12:32:31.484Z,455.05
2022-10-13T12:35:12.007Z,469.30
2022-10-13T12:37:41.595Z,471.73
2022-10-13T12:40:14.527Z,443.65
2022-10-13T12:42:43.969Z,426.52
2022-10-13T12:45:16.904Z,451.67
2022-10-13T12:47:50.979Z,452.77
2022-10-13T12:50:33.399Z,435.23
2022-10-13T12:53:15.193Z,424.73
2022-10-13T12:55:55.144Z,454.85
2022-10-13T12:58:26.924Z,451.98
2022-10-13T13:01:23.207Z,454.05
2022-10-13T13:03:56.428Z,443.35
2022-10-13T13:06:31.048Z,433.30
2022-10-13T13:09:25.669Z,442.33
2022-10-13T13:12:23.571Z,403.75
2022-10-13T13:14:55.388Z,415.38
2022-10-13T13:17:56.753Z,439.40
2022-10-13T13:20:26.055Z,447.85
2022-10-13T13:22:54.276Z,439.80
2022-10-13T13:25:24.048Z,465.50
2022-10-13T13:27:53.052Z,483.70
2022-10-13T13:30:23.961Z,455.00
2022-10-13T13:32:51.964Z,465.08
2022-10-13T13:35:19.601Z,450.83
2022-10-13T13:37:50.337Z,441.73
2022-10-13T13:40:20.871Z,434.85
2022-10-13T13:42:49.907Z,458.35
2022-10-13T13:45:19.454Z,481.20
2022-10-13T13:47:47.656Z,471.05
2022-10-13T13:50:18.409Z,456.23
2022-10-13T13:52:56.845Z,496.55
2022-10-13T13:55:24.671Z,455.83
2022-10-13T13:57:53.601Z,480.17
2022-10-13T14:00:21.689Z,489.60
2022-10-13T14:02:55.835Z,468.00
2022-10-13T14:05:23.594Z,482.95
2022-10-13T14:07:54.523Z,485.13
2022-10-13T14:10:22.121Z,475.10
2022-10-13T14:12:49.718Z,477.52
2022-10-13T14:15:19.108Z,484.90
2022-10-13T14:17:46.680Z,450.55
2022-10-13T14:20:14.321Z,483.45
2022-10-13T14:22:42.343Z,465.63
2022-10-13T14:25:10.977Z,487.35
2022-10-13T14:27:38.925Z,481.05
2022-10-13T14:30:10.074Z,475.63
2022-10-13T14:32:39.435Z,473.27
2022-10-13T14:35:07.977Z,467.60
2022-10-13T14:37:36.189Z,481.55
2022-10-13T14:40:04.559Z,471.92
2022-10-13T14:42:33.473Z,464.98
2022-10-13T14:45:02.708Z,474.17
2022-10-13T14:47:30.513Z,489.92
2022-10-13T14:50:01.256Z,490.70
2022-10-13T14:52:28.908Z,492.52
2022-10-13T14:54:56.540Z,487.52
2022-10-13T14:57:24.100Z,466.55
2022-10-13T14:59:51.798Z,478.33
2022-10-13T15:02:19.381Z,474.45
2022-10-13T15:04:53.403Z,476.20
2022-10-13T15:07:22.618Z,473.27
2022-10-13T15:10:04.941Z,478.85
2022-10-13T15:12:32.955Z,451.80
2022-10-13T15:15:00.581Z,468.42
2022-10-13T15:17:28.262Z,479.95
2022-10-13T15:19:55.813Z,475.63
2022-10-13T15:22:25.022Z,474.73
2022-10-13T15:24:52.676Z,495.00
2022-10-13T15:27:20.349Z,452.52
2022-10-13T15:29:47.955Z,467.67
2022-10-13T15:32:19.011Z,481.52
2022-10-13T15:34:52.213Z,465.33
2022-10-13T15:37:19.841Z,487.10
2022-10-13T15:39:53.165Z,473.23
2022-10-13T15:42:24.060Z,494.05
2022-10-13T15:45:08.946Z,487.02
2022-10-13T15:47:38.127Z,454.83
2022-10-13T15:50:06.263Z,473.17
2022-10-13T15:52:38.521Z,452.25
2022-10-13T15:55:08.456Z,487.80
2022-10-13T15:57:36.149Z,483.73
2022-10-13T16:00:05.244Z,457.02
2022-10-13T16:02:40.297Z,469.00
2022-10-13T16:05:10.221Z,467.80
2022-10-13T16:07:39.118Z,473.40
2022-10-13T16:10:09.451Z,459.05
2022-10-13T16:12:37.204Z,458.83
2022-10-13T16:15:05.372Z,451.90
2022-10-13T16:17:33.067Z,459.77
2022-10-13T16:20:00.886Z,458.73
2022-10-13T16:22:28.512Z,432.55
2022-10-13T16:24:56.141Z,435.73
2022-10-13T16:27:25.090Z,454.27
2022-10-13T16:29:52.703Z,409.52
2022-10-13T16:32:20.705Z,449.75
2022-10-13T16:34:49.178Z,419.98
2022-10-13T16:37:20.482Z,383.90
2022-10-13T16:39:51.663Z,415.13
2022-10-13T16:42:19.834Z,394.92
2022-10-13T16:44:48.766Z,404.45
2022-10-13T16:47:18.597Z,410.52
2022-10-13T16:49:46.823Z,421.10
2022-10-13T16:52:15.825Z,428.45
2022-10-13T16:54:45.062Z,410.25
2022-10-13T16:57:13.472Z,429.27
2022-10-13T16:59:41.792Z,414.48
2022-10-13T17:02:15.289Z,429.63
2022-10-13T17:04:44.159Z,466.33
2022-10-13T17:07:11.748Z,458.63
2022-10-13T17:09:39.527Z,473.70
2022-10-13T17:12:07.729Z,427.20
2022-10-13T17:14:35.552Z,447.90
2022-10-13T17:17:03.398Z,454.60
2022-10-13T17:19:32.343Z,467.63
2022-10-13T17:22:00.008Z,437.58
2022-10-13T17:24:29.662Z,463.45
2022-10-13T17:26:57.279Z,456.85
2022-10-13T17:29:24.882Z,449.60
2022-10-13T17:31:54.301Z,463.77
2022-10-13T17:34:23.137Z,473.52
2022-10-13T17:36:53.568Z,453.80
2022-10-13T17:39:21.233Z,456.88
2022-10-13T17:41:48.797Z,471.67
2022-10-13T17:44:20.254Z,478.83
2022-10-13T17:46:49.728Z,462.45
2022-10-13T17:49:17.976Z,463.48
2022-10-13T17:51:46.117Z,461.55
2022-10-13T17:54:16.614Z,434.15
2022-10-13T17:56:45.088Z,430.45
2022-10-13T17:59:13.442Z,456.05
2022-10-13T18:01:41.952Z,484.25
2022-10-13T18:04:12.390Z,471.60
2022-10-13T18:06:43.888Z,465.75
2022-10-13T18:09:13.994Z,477.63
2022-10-13T18:11:49.715Z,439.45
2022-10-13T18:14:18.238Z,461.90
2022-10-13T18:16:46.603Z,444.98
2022-10-13T18:19:15.979Z,458.05
2022-10-13T18:21:43.623Z,442.80
2022-10-13T18:24:11.919Z,444.13
2022-10-13T18:26:40.004Z,446.27
2022-10-13T18:29:11.628Z,454.88
2022-10-13T18:31:41.049Z,449.10
2022-10-13T18:34:11.239Z,445.77
2022-10-13T18:36:41.502Z,439.30
2022-10-13T18:39:12.416Z,418.05
2022-10-13T18:41:41.840Z,459.38
2022-10-13T18:44:10.801Z,436.30
2022-10-13T18:46:39.409Z,459.48
2022-10-13T18:49:08.654Z,452.48
2022-10-13T18:51:39.962Z,484.02
2022-10-13T18:54:08.831Z,440.15
2022-10-13T18:56:37.103Z,413.25
2022-10-13T18:59:07.019Z,454.70
2022-10-13T19:01:37.291Z,454.98
2022-10-13T19:04:05.528Z,439.35
2022-10-13T19:06:33.868Z,437.67
2022-10-13T19:09:04.802Z,433.02
2022-10-13T19:11:35.853Z,433.15
2022-10-13T19:14:05.713Z,433.88
2022-10-13T19:16:39.273Z,428.00
2022-10-13T19:19:08.642Z,441.55
2022-10-13T19:21:36.741Z,444.40
2022-10-13T19:24:06.434Z,440.58
2022-10-13T19:26:35.952Z,466.10
2022-10-13T19:29:06.283Z,456.13
2022-10-13T19:31:34.990Z,459.80
2022-10-13T19:34:09.365Z,416.13
2022-10-13T19:36:39.787Z,436.98
2022-10-13T19:39:11.796Z,446.58
2022-10-13T19:41:39.805Z,431.73
2022-10-13T19:44:07.599Z,442.23
2022-10-13T19:46:39.800Z,423.95
2022-10-13T19:49:09.262Z,451.52
2022-10-13T19:51:38.293Z,445.92
2022-10-13T19:54:06.081Z,451.42
2022-10-13T19:56:34.021Z,442.48
2022-10-13T19:59:04.353Z,451.75
2022-10-13T20:01:32.751Z,447.00
2022-10-13T20:04:22.540Z,460.40
2022-10-13T20:07:10.546Z,424.77
2022-10-13T20:09:58.393Z,429.20
2022-10-13T20:12:48.345Z,422.40
2022-10-13T20:15:40.841Z,440.88
2022-10-13T20:18:28.757Z,429.05
2022-10-13T20:21:18.631Z,458.83
2022-10-13T20:24:06.992Z,418.15
2022-10-13T20:26:54.978Z,416.05
2022-10-13T20:29:43.683Z,417.42
2022-10-13T20:32:31.569Z,426.77
2022-10-13T20:35:19.449Z,388.38
2022-10-13T20:38:10.136Z,418.73
2022-10-13T20:41:04.648Z,410.65
2022-10-13T20:43:54.475Z,407.77
2022-10-13T20:46:42.356Z,418.52
2022-10-13T20:49:30.220Z,420.42
2022-10-13T20:52:18.122Z,421.02
2022-10-13T20:55:11.185Z,407.15
2022-10-13T20:57:59.056Z,415.73
2022-10-13T21:00:47.023Z,397.95
2022-10-13T21:03:35.017Z,411.83
2022-10-13T21:06:26.623Z,418.23
2022-10-13T21:09:14.916Z,407.75
2022-10-13T21:12:04.507Z,419.20
2022-10-13T21:14:52.387Z,417.73
2022-10-13T21:17:42.443Z,421.35
2022-10-13T21:20:30.539Z,418.85
2022-10-13T21:23:18.459Z,426.73
2022-10-13T21:26:07.737Z,430.13
2022-10-13T21:28:57.520Z,424.60
2022-10-13T21:31:45.669Z,403.08
2022-10-13T21:34:33.616Z,436.65
2022-10-13T21:37:21.805Z,427.30
2022-10-13T21:40:10.887Z,426.05
2022-10-13T21:42:58.761Z,425.25
2022-10-13T21:45:50.750Z,398.63
2022-10-13T21:48:38.783Z,444.33
2022-10-13T21:51:29.472Z,428.45
2022-10-13T21:54:17.509Z,440.05
2022-10-13T21:57:05.449Z,448.00
2022-10-13T21:59:53.323Z,421.35
2022-10-13T22:02:42.535Z,427.33
2022-10-13T22:05:31.427Z,449.45
2022-10-13T22:08:19.342Z,419.05
2022-10-13T22:11:09.173Z,432.98
2022-10-13T22:13:57.550Z,433.33
2022-10-13T22:16:47.698Z,433.60
2022-10-13T22:19:37.048Z,454.15
2022-10-13T22:22:30.096Z,436.95
2022-10-13T22:25:19.034Z,434.42
2022-10-13T22:28:06.907Z,419.33
2022-10-13T22:30:56.409Z,425.88
2022-10-13T22:33:44.864Z,415.92
2022-10-13T22:36:34.168Z,448.65
2022-10-13T22:39:23.316Z,424.33
2022-10-13T22:42:14.203Z,421.65
2022-10-13T22:45:02.254Z,417.00
2022-10-13T22:47:51.764Z,418.73
2022-10-13T22:50:39.660Z,433.77
2022-10-13T22:53:28.897Z,423.35
2022-10-13T22:56:18.895Z,419.38
2022-10-13T22:59:09.481Z,424.80
2022-10-13T23:01:57.370Z,431.10
2022-10-13T23:04:45.251Z,419.02
2022-10-13T23:07:33.116Z,432.67
2022-10-13T23:10:22.366Z,425.05
2022-10-13T23:13:10.302Z,446.27
2022-10-13T23:16:02.166Z,428.23
2022-10-13T23:18:55.588Z,425.05
2022-10-13T23:21:43.596Z,421.05
2022-10-13T23:24:31.975Z,417.10
2022-10-13T23:27:21.502Z,419.20
2022-10-13T23:30:11.687Z,441.50
2022-10-13T23:32:59.605Z,431.50
2022-10-13T23:35:54.645Z,428.92
2022-10-13T23:38:42.638Z,410.13
2022-10-13T23:41:30.814Z,409.98
2022-10-13T23:44:20.025Z,470.52
2022-10-13T23:47:08.755Z,427.65
2022-10-13T23:49:56.613Z,434.92
2022-10-13T23:52:44.877Z,424.58
2022-10-13T23:55:37.503Z,422.60
2022-10-13T23:58:25.390Z,432.65
